sensor_id;sensor_type;location;lat;lon;timestamp;temperature;humidity
51175;DHT22;37240;50.104;20.010;2023-05-19T00:02:23;11.60;99.90
51175;DHT22;37240;50.104;20.010;2023-05-19T00:07:26;11.70;99.90
51175;DHT22;37240;50.104;20.010;2023-05-19T00:12:29;11.80;99.90
51175;DHT22;37240;50.104;20.010;2023-05-19T00:17:30;11.80;99.90
51175;DHT22;37240;50.104;20.010;2023-05-19T00:22:31;11.70;99.90
51175;DHT22;37240;50.104;20.010;2023-05-19T00:27:32;11.70;99.90
51175;DHT22;37240;50.104;20.010;2023-05-19T00:32:32;11.70;99.90
51175;DHT22;37240;50.104;20.010;2023-05-19T00:37:33;11.70;99.90
51175;DHT22;37240;50.104;20.010;2023-05-19T00:42:33;11.60;99.90
51175;DHT22;37240;50.104;20.010;2023-05-19T00:47:34;11.60;99.90
51175;DHT22;37240;50.104;20.010;2023-05-19T00:52:34;11.60;99.90
51175;DHT22;37240;50.104;20.010;2023-05-19T00:57:35;11.60;99.90
51175;DHT22;37240;50.104;20.010;2023-05-19T01:02:36;11.60;99.90
51175;DHT22;37240;50.104;20.010;2023-05-19T01:07:37;11.50;99.90
51175;DHT22;37240;50.104;20.010;2023-05-19T01:12:39;11.50;99.90
51175;DHT22;37240;50.104;20.010;2023-05-19T01:18:04;11.60;99.90
51175;DHT22;37240;50.104;20.010;2023-05-19T01:23:37;11.60;99.90
51175;DHT22;37240;50.104;20.010;2023-05-19T01:29:02;11.70;99.90
51175;DHT22;37240;50.104;20.010;2023-05-19T01:34:02;11.70;99.90
51175;DHT22;37240;50.104;20.010;2023-05-19T01:39:03;11.80;99.90
51175;DHT22;37240;50.104;20.010;2023-05-19T01:44:04;11.90;99.90
51175;DHT22;37240;50.104;20.010;2023-05-19T01:49:05;11.80;99.90
51175;DHT22;37240;50.104;20.010;2023-05-19T01:54:06;11.80;99.90
51175;DHT22;37240;50.104;20.010;2023-05-19T01:59:20;11.80;99.90
51175;DHT22;37240;50.104;20.010;2023-05-19T02:04:38;11.80;99.90
51175;DHT22;37240;50.104;20.010;2023-05-19T02:09:53;11.80;99.90
51175;DHT22;37240;50.104;20.010;2023-05-19T02:15:04;11.80;99.90
51175;DHT22;37240;50.104;20.010;2023-05-19T02:20:06;11.80;99.90
51175;DHT22;37240;50.104;20.010;2023-05-19T02:25:07;11.70;99.90
51175;DHT22;37240;50.104;20.010;2023-05-19T02:30:09;11.70;99.90
51175;DHT22;37240;50.104;20.010;2023-05-19T02:35:09;11.70;99.90
51175;DHT22;37240;50.104;20.010;2023-05-19T02:40:10;11.70;99.90
51175;DHT22;37240;50.104;20.010;2023-05-19T02:45:11;11.60;99.90
51175;DHT22;37240;50.104;20.010;2023-05-19T02:50:11;11.60;99.90
51175;DHT22;37240;50.104;20.010;2023-05-19T02:55:12;11.60;99.90
51175;DHT22;37240;50.104;20.010;2023-05-19T03:00:12;11.60;99.90
51175;DHT22;37240;50.104;20.010;2023-05-19T03:05:13;11.70;99.90
51175;DHT22;37240;50.104;20.010;2023-05-19T03:10:14;11.70;99.90
51175;DHT22;37240;50.104;20.010;2023-05-19T03:15:14;11.60;99.90
51175;DHT22;37240;50.104;20.010;2023-05-19T03:20:15;11.70;99.90
51175;DHT22;37240;50.104;20.010;2023-05-19T03:25:15;11.60;99.90
51175;DHT22;37240;50.104;20.010;2023-05-19T03:30:16;11.70;99.90
51175;DHT22;37240;50.104;20.010;2023-05-19T03:35:17;11.70;99.90
51175;DHT22;37240;50.104;20.010;2023-05-19T03:40:17;11.70;99.90
51175;DHT22;37240;50.104;20.010;2023-05-19T03:45:18;11.70;99.90
51175;DHT22;37240;50.104;20.010;2023-05-19T03:50:19;11.80;99.90
51175;DHT22;37240;50.104;20.010;2023-05-19T03:55:19;11.70;99.90
51175;DHT22;37240;50.104;20.010;2023-05-19T04:00:20;11.80;99.90
51175;DHT22;37240;50.104;20.010;2023-05-19T04:05:20;11.80;99.90
51175;DHT22;37240;50.104;20.010;2023-05-19T04:10:21;11.90;99.90
51175;DHT22;37240;50.104;20.010;2023-05-19T04:15:21;11.90;99.90
51175;DHT22;37240;50.104;20.010;2023-05-19T04:20:22;11.90;99.90
51175;DHT22;37240;50.104;20.010;2023-05-19T04:25:23;12.00;99.90
51175;DHT22;37240;50.104;20.010;2023-05-19T04:30:23;12.00;99.90
51175;DHT22;37240;50.104;20.010;2023-05-19T04:35:24;12.00;99.90
51175;DHT22;37240;50.104;20.010;2023-05-19T04:40:24;12.10;99.90
51175;DHT22;37240;50.104;20.010;2023-05-19T04:45:25;12.10;99.90
51175;DHT22;37240;50.104;20.010;2023-05-19T04:50:26;12.10;99.90
51175;DHT22;37240;50.104;20.010;2023-05-19T04:55:26;12.20;99.90
51175;DHT22;37240;50.104;20.010;2023-05-19T05:00:27;12.20;99.90
51175;DHT22;37240;50.104;20.010;2023-05-19T05:05:27;12.20;99.90
51175;DHT22;37240;50.104;20.010;2023-05-19T05:10:28;12.30;99.90
51175;DHT22;37240;50.104;20.010;2023-05-19T05:15:29;12.40;99.90
51175;DHT22;37240;50.104;20.010;2023-05-19T05:20:30;12.40;99.90
51175;DHT22;37240;50.104;20.010;2023-05-19T05:25:31;12.40;99.90
51175;DHT22;37240;50.104;20.010;2023-05-19T05:30:33;12.50;99.90
51175;DHT22;37240;50.104;20.010;2023-05-19T05:35:33;12.60;99.90
51175;DHT22;37240;50.104;20.010;2023-05-19T05:40:34;12.70;99.90
51175;DHT22;37240;50.104;20.010;2023-05-19T05:45:34;12.80;99.90
51175;DHT22;37240;50.104;20.010;2023-05-19T05:50:35;12.70;99.90
51175;DHT22;37240;50.104;20.010;2023-05-19T05:55:36;12.70;99.90
51175;DHT22;37240;50.104;20.010;2023-05-19T06:00:37;12.80;99.90
51175;DHT22;37240;50.104;20.010;2023-05-19T06:05:37;12.80;99.90
51175;DHT22;37240;50.104;20.010;2023-05-19T06:10:38;12.70;99.90
51175;DHT22;37240;50.104;20.010;2023-05-19T06:15:38;12.70;99.90
51175;DHT22;37240;50.104;20.010;2023-05-19T06:20:39;12.70;99.90
51175;DHT22;37240;50.104;20.010;2023-05-19T06:25:39;12.90;99.90
51175;DHT22;37240;50.104;20.010;2023-05-19T06:30:40;13.10;99.90
51175;DHT22;37240;50.104;20.010;2023-05-19T06:35:40;13.30;99.90
51175;DHT22;37240;50.104;20.010;2023-05-19T06:40:41;13.40;99.90
51175;DHT22;37240;50.104;20.010;2023-05-19T06:45:42;13.60;99.90
51175;DHT22;37240;50.104;20.010;2023-05-19T06:50:42;13.60;99.90
51175;DHT22;37240;50.104;20.010;2023-05-19T06:55:43;13.60;99.90
51175;DHT22;37240;50.104;20.010;2023-05-19T07:00:43;13.60;99.90
51175;DHT22;37240;50.104;20.010;2023-05-19T07:05:44;13.50;99.90
51175;DHT22;37240;50.104;20.010;2023-05-19T07:10:44;13.50;99.90
51175;DHT22;37240;50.104;20.010;2023-05-19T07:15:45;13.60;99.90
51175;DHT22;37240;50.104;20.010;2023-05-19T07:20:45;13.50;99.90
51175;DHT22;37240;50.104;20.010;2023-05-19T07:25:46;13.60;99.90
51175;DHT22;37240;50.104;20.010;2023-05-19T07:30:46;13.70;99.90
51175;DHT22;37240;50.104;20.010;2023-05-19T07:35:47;13.60;99.90
51175;DHT22;37240;50.104;20.010;2023-05-19T07:40:48;13.70;99.90
51175;DHT22;37240;50.104;20.010;2023-05-19T07:45:48;13.80;99.90
51175;DHT22;37240;50.104;20.010;2023-05-19T07:50:49;13.80;99.90
51175;DHT22;37240;50.104;20.010;2023-05-19T07:55:50;13.80;99.90
51175;DHT22;37240;50.104;20.010;2023-05-19T08:00:50;13.70;99.90
51175;DHT22;37240;50.104;20.010;2023-05-19T08:05:51;13.50;99.90
51175;DHT22;37240;50.104;20.010;2023-05-19T08:10:52;13.60;99.90
51175;DHT22;37240;50.104;20.010;2023-05-19T08:15:52;13.60;99.90
51175;DHT22;37240;50.104;20.010;2023-05-19T08:20:53;13.80;99.90
51175;DHT22;37240;50.104;20.010;2023-05-19T08:25:53;14.00;99.90
51175;DHT22;37240;50.104;20.010;2023-05-19T08:30:54;14.20;99.90
51175;DHT22;37240;50.104;20.010;2023-05-19T08:35:55;14.30;99.90
51175;DHT22;37240;50.104;20.010;2023-05-19T08:40:55;14.30;99.90
51175;DHT22;37240;50.104;20.010;2023-05-19T08:45:58;14.30;99.90
51175;DHT22;37240;50.104;20.010;2023-05-19T08:56:29;14.20;99.90
51175;DHT22;37240;50.104;20.010;2023-05-19T09:01:30;14.20;99.90
51175;DHT22;37240;50.104;20.010;2023-05-19T09:06:31;14.10;99.90
51175;DHT22;37240;50.104;20.010;2023-05-19T09:11:32;13.90;99.90
51175;DHT22;37240;50.104;20.010;2023-05-19T09:16:33;13.90;99.90
51175;DHT22;37240;50.104;20.010;2023-05-19T09:21:34;14.00;99.90
51175;DHT22;37240;50.104;20.010;2023-05-19T09:26:39;14.20;99.90
51175;DHT22;37240;50.104;20.010;2023-05-19T09:31:47;14.40;99.90
51175;DHT22;37240;50.104;20.010;2023-05-19T09:36:47;14.50;99.90
51175;DHT22;37240;50.104;20.010;2023-05-19T09:41:52;14.50;99.90
51175;DHT22;37240;50.104;20.010;2023-05-19T09:46:53;14.30;99.90
51175;DHT22;37240;50.104;20.010;2023-05-19T09:51:54;14.30;99.90
51175;DHT22;37240;50.104;20.010;2023-05-19T09:56:59;14.30;99.90
51175;DHT22;37240;50.104;20.010;2023-05-19T10:02:00;14.50;99.90
51175;DHT22;37240;50.104;20.010;2023-05-19T10:07:03;14.40;99.90
51175;DHT22;37240;50.104;20.010;2023-05-19T10:12:04;14.50;99.90
51175;DHT22;37240;50.104;20.010;2023-05-19T10:17:07;14.50;99.90
51175;DHT22;37240;50.104;20.010;2023-05-19T10:22:08;14.50;99.90
51175;DHT22;37240;50.104;20.010;2023-05-19T10:27:12;14.70;99.90
51175;DHT22;37240;50.104;20.010;2023-05-19T10:32:17;14.80;99.90
51175;DHT22;37240;50.104;20.010;2023-05-19T10:37:36;14.90;99.90
51175;DHT22;37240;50.104;20.010;2023-05-19T10:48:01;15.00;99.90
51175;DHT22;37240;50.104;20.010;2023-05-19T10:53:01;15.10;99.90
51175;DHT22;37240;50.104;20.010;2023-05-19T10:58:02;15.10;99.90
51175;DHT22;37240;50.104;20.010;2023-05-19T11:03:14;15.10;99.90
51175;DHT22;37240;50.104;20.010;2023-05-19T11:08:14;15.20;99.90
51175;DHT22;37240;50.104;20.010;2023-05-19T11:13:19;15.20;99.90
51175;DHT22;37240;50.104;20.010;2023-05-19T11:18:19;15.20;99.90
51175;DHT22;37240;50.104;20.010;2023-05-19T11:23:21;15.20;99.90
51175;DHT22;37240;50.104;20.010;2023-05-19T11:28:24;15.20;99.90
51175;DHT22;37240;50.104;20.010;2023-05-19T11:33:25;15.20;99.90
51175;DHT22;37240;50.104;20.010;2023-05-19T11:38:27;15.20;99.90
51175;DHT22;37240;50.104;20.010;2023-05-19T11:43:27;15.30;99.90
51175;DHT22;37240;50.104;20.010;2023-05-19T11:48:28;15.40;99.90
51175;DHT22;37240;50.104;20.010;2023-05-19T11:53:29;15.40;99.90
51175;DHT22;37240;50.104;20.010;2023-05-19T11:58:30;15.40;99.90
51175;DHT22;37240;50.104;20.010;2023-05-19T12:03:30;15.50;99.90
51175;DHT22;37240;50.104;20.010;2023-05-19T12:08:31;15.50;99.90
51175;DHT22;37240;50.104;20.010;2023-05-19T12:13:32;15.50;99.90
51175;DHT22;37240;50.104;20.010;2023-05-19T12:18:35;15.50;99.90
51175;DHT22;37240;50.104;20.010;2023-05-19T12:23:36;15.50;99.90
51175;DHT22;37240;50.104;20.010;2023-05-19T12:28:37;15.40;99.90
51175;DHT22;37240;50.104;20.010;2023-05-19T12:33:38;15.50;99.90
51175;DHT22;37240;50.104;20.010;2023-05-19T12:38:38;15.50;99.90
51175;DHT22;37240;50.104;20.010;2023-05-19T12:43:39;15.50;99.90
51175;DHT22;37240;50.104;20.010;2023-05-19T12:48:44;15.40;99.90
51175;DHT22;37240;50.104;20.010;2023-05-19T12:53:45;15.50;99.90
51175;DHT22;37240;50.104;20.010;2023-05-19T12:58:46;15.40;99.90
51175;DHT22;37240;50.104;20.010;2023-05-19T13:03:46;15.40;99.90
51175;DHT22;37240;50.104;20.010;2023-05-19T13:08:47;15.50;99.90
51175;DHT22;37240;50.104;20.010;2023-05-19T13:13:47;15.50;99.90
51175;DHT22;37240;50.104;20.010;2023-05-19T13:18:48;15.40;99.90
51175;DHT22;37240;50.104;20.010;2023-05-19T13:23:48;15.40;99.90
51175;DHT22;37240;50.104;20.010;2023-05-19T13:28:49;15.40;99.90
51175;DHT22;37240;50.104;20.010;2023-05-19T13:33:49;15.50;99.90
51175;DHT22;37240;50.104;20.010;2023-05-19T13:38:50;15.40;99.90
51175;DHT22;37240;50.104;20.010;2023-05-19T13:43:51;15.50;99.90
51175;DHT22;37240;50.104;20.010;2023-05-19T13:48:52;15.50;99.90
51175;DHT22;37240;50.104;20.010;2023-05-19T13:53:52;15.50;99.90
51175;DHT22;37240;50.104;20.010;2023-05-19T13:58:53;15.50;99.90
51175;DHT22;37240;50.104;20.010;2023-05-19T14:03:54;15.30;99.90
51175;DHT22;37240;50.104;20.010;2023-05-19T14:08:54;15.20;99.90
51175;DHT22;37240;50.104;20.010;2023-05-19T14:13:55;15.30;99.90
51175;DHT22;37240;50.104;20.010;2023-05-19T14:18:55;15.30;99.90
51175;DHT22;37240;50.104;20.010;2023-05-19T14:23:56;15.40;99.90
51175;DHT22;37240;50.104;20.010;2023-05-19T14:28:57;15.40;99.90
51175;DHT22;37240;50.104;20.010;2023-05-19T14:33:57;15.30;99.90
51175;DHT22;37240;50.104;20.010;2023-05-19T14:38:58;15.30;99.90
51175;DHT22;37240;50.104;20.010;2023-05-19T14:43:58;15.10;99.90
51175;DHT22;37240;50.104;20.010;2023-05-19T14:48:59;15.10;99.90
51175;DHT22;37240;50.104;20.010;2023-05-19T14:53:59;15.10;99.90
51175;DHT22;37240;50.104;20.010;2023-05-19T14:59:00;15.10;99.90
51175;DHT22;37240;50.104;20.010;2023-05-19T15:04:00;15.00;99.90
51175;DHT22;37240;50.104;20.010;2023-05-19T15:09:01;15.10;99.90
51175;DHT22;37240;50.104;20.010;2023-05-19T15:14:01;15.20;99.90
51175;DHT22;37240;50.104;20.010;2023-05-19T15:19:02;15.10;99.90
51175;DHT22;37240;50.104;20.010;2023-05-19T15:24:03;15.00;99.90
51175;DHT22;37240;50.104;20.010;2023-05-19T15:29:03;15.10;99.90
51175;DHT22;37240;50.104;20.010;2023-05-19T15:34:04;15.10;99.90
51175;DHT22;37240;50.104;20.010;2023-05-19T15:39:04;15.30;99.90
51175;DHT22;37240;50.104;20.010;2023-05-19T15:44:05;15.30;99.90
51175;DHT22;37240;50.104;20.010;2023-05-19T15:49:06;15.30;99.90
51175;DHT22;37240;50.104;20.010;2023-05-19T15:54:06;15.30;99.90
51175;DHT22;37240;50.104;20.010;2023-05-19T15:59:07;15.30;99.90
51175;DHT22;37240;50.104;20.010;2023-05-19T16:04:07;15.20;99.90
51175;DHT22;37240;50.104;20.010;2023-05-19T16:09:08;15.00;99.90
51175;DHT22;37240;50.104;20.010;2023-05-19T16:14:08;14.90;99.90
51175;DHT22;37240;50.104;20.010;2023-05-19T16:19:09;14.90;99.90
51175;DHT22;37240;50.104;20.010;2023-05-19T16:24:09;14.80;99.90
51175;DHT22;37240;50.104;20.010;2023-05-19T16:29:10;14.80;99.90
51175;DHT22;37240;50.104;20.010;2023-05-19T16:34:10;14.80;99.90
51175;DHT22;37240;50.104;20.010;2023-05-19T16:39:11;14.70;99.90
51175;DHT22;37240;50.104;20.010;2023-05-19T16:44:11;14.70;99.90
51175;DHT22;37240;50.104;20.010;2023-05-19T16:49:12;14.60;99.90
51175;DHT22;37240;50.104;20.010;2023-05-19T16:54:12;14.60;99.90
51175;DHT22;37240;50.104;20.010;2023-05-19T16:59:13;14.50;99.90
51175;DHT22;37240;50.104;20.010;2023-05-19T17:04:13;14.50;99.90
51175;DHT22;37240;50.104;20.010;2023-05-19T17:09:14;14.50;99.90
51175;DHT22;37240;50.104;20.010;2023-05-19T17:14:14;14.50;99.90
51175;DHT22;37240;50.104;20.010;2023-05-19T17:19:15;14.60;99.90
51175;DHT22;37240;50.104;20.010;2023-05-19T17:24:15;14.60;99.90
51175;DHT22;37240;50.104;20.010;2023-05-19T17:29:16;14.60;99.90
51175;DHT22;37240;50.104;20.010;2023-05-19T17:34:17;14.70;99.90
51175;DHT22;37240;50.104;20.010;2023-05-19T17:39:17;14.80;99.90
51175;DHT22;37240;50.104;20.010;2023-05-19T17:44:18;14.80;99.90
51175;DHT22;37240;50.104;20.010;2023-05-19T17:49:18;14.60;99.90
51175;DHT22;37240;50.104;20.010;2023-05-19T17:54:19;14.60;99.90
51175;DHT22;37240;50.104;20.010;2023-05-19T17:59:19;14.50;99.90
51175;DHT22;37240;50.104;20.010;2023-05-19T18:04:20;14.50;99.90
51175;DHT22;37240;50.104;20.010;2023-05-19T18:09:22;14.50;99.90
51175;DHT22;37240;50.104;20.010;2023-05-19T18:14:25;14.40;99.90
51175;DHT22;37240;50.104;20.010;2023-05-19T18:19:25;14.50;99.90
51175;DHT22;37240;50.104;20.010;2023-05-19T18:24:26;14.40;99.90
51175;DHT22;37240;50.104;20.010;2023-05-19T18:29:26;14.50;99.90
51175;DHT22;37240;50.104;20.010;2023-05-19T18:34:29;14.40;99.90
51175;DHT22;37240;50.104;20.010;2023-05-19T18:39:29;14.20;99.90
51175;DHT22;37240;50.104;20.010;2023-05-19T18:44:30;14.20;99.90
51175;DHT22;37240;50.104;20.010;2023-05-19T18:49:30;14.30;99.90
51175;DHT22;37240;50.104;20.010;2023-05-19T18:54:31;14.30;99.90
51175;DHT22;37240;50.104;20.010;2023-05-19T18:59:31;14.20;99.90
51175;DHT22;37240;50.104;20.010;2023-05-19T19:04:32;14.30;99.90
51175;DHT22;37240;50.104;20.010;2023-05-19T19:09:33;14.30;99.90
51175;DHT22;37240;50.104;20.010;2023-05-19T19:14:33;14.20;99.90
51175;DHT22;37240;50.104;20.010;2023-05-19T19:19:34;14.30;99.90
51175;DHT22;37240;50.104;20.010;2023-05-19T19:24:34;14.40;99.90
51175;DHT22;37240;50.104;20.010;2023-05-19T19:29:35;14.30;99.90
51175;DHT22;37240;50.104;20.010;2023-05-19T19:34:36;14.20;99.90
51175;DHT22;37240;50.104;20.010;2023-05-19T19:39:36;14.20;99.90
51175;DHT22;37240;50.104;20.010;2023-05-19T19:44:37;14.20;99.90
51175;DHT22;37240;50.104;20.010;2023-05-19T19:49:37;14.10;99.90
51175;DHT22;37240;50.104;20.010;2023-05-19T19:54:38;14.00;99.90
51175;DHT22;37240;50.104;20.010;2023-05-19T19:59:38;14.00;99.90
51175;DHT22;37240;50.104;20.010;2023-05-19T20:04:39;14.00;99.90
51175;DHT22;37240;50.104;20.010;2023-05-19T20:09:39;14.00;99.90
51175;DHT22;37240;50.104;20.010;2023-05-19T20:14:40;13.90;99.90
51175;DHT22;37240;50.104;20.010;2023-05-19T20:19:40;13.90;99.90
51175;DHT22;37240;50.104;20.010;2023-05-19T20:24:41;13.90;99.90
51175;DHT22;37240;50.104;20.010;2023-05-19T20:29:41;14.00;99.90
51175;DHT22;37240;50.104;20.010;2023-05-19T20:34:42;14.00;99.90
51175;DHT22;37240;50.104;20.010;2023-05-19T20:39:42;14.00;99.90
51175;DHT22;37240;50.104;20.010;2023-05-19T20:44:43;14.10;99.90
51175;DHT22;37240;50.104;20.010;2023-05-19T20:49:44;14.00;99.90
51175;DHT22;37240;50.104;20.010;2023-05-19T20:54:45;14.00;99.90
51175;DHT22;37240;50.104;20.010;2023-05-19T20:59:45;14.10;99.90
51175;DHT22;37240;50.104;20.010;2023-05-19T21:04:46;14.00;99.90
51175;DHT22;37240;50.104;20.010;2023-05-19T21:09:46;14.00;99.90
51175;DHT22;37240;50.104;20.010;2023-05-19T21:14:47;13.80;99.90
51175;DHT22;37240;50.104;20.010;2023-05-19T21:19:47;13.90;99.90
51175;DHT22;37240;50.104;20.010;2023-05-19T21:24:48;13.90;99.90
51175;DHT22;37240;50.104;20.010;2023-05-19T21:29:52;13.90;99.90
51175;DHT22;37240;50.104;20.010;2023-05-19T21:34:53;13.80;99.90
51175;DHT22;37240;50.104;20.010;2023-05-19T21:39:53;13.80;99.90
51175;DHT22;37240;50.104;20.010;2023-05-19T21:44:54;13.90;99.90
51175;DHT22;37240;50.104;20.010;2023-05-19T21:49:54;13.70;99.90
51175;DHT22;37240;50.104;20.010;2023-05-19T21:54:55;13.80;99.90
51175;DHT22;37240;50.104;20.010;2023-05-19T21:59:57;13.70;99.90
51175;DHT22;37240;50.104;20.010;2023-05-19T22:04:57;13.80;99.90
51175;DHT22;37240;50.104;20.010;2023-05-19T22:09:58;13.90;99.90
51175;DHT22;37240;50.104;20.010;2023-05-19T22:14:58;13.90;99.90
51175;DHT22;37240;50.104;20.010;2023-05-19T22:19:59;13.80;99.90
51175;DHT22;37240;50.104;20.010;2023-05-19T22:25:00;13.90;99.90
51175;DHT22;37240;50.104;20.010;2023-05-19T22:30:01;13.90;99.90
51175;DHT22;37240;50.104;20.010;2023-05-19T22:35:01;13.80;99.90
51175;DHT22;37240;50.104;20.010;2023-05-19T22:40:02;13.80;99.90
51175;DHT22;37240;50.104;20.010;2023-05-19T22:45:03;13.70;99.90
51175;DHT22;37240;50.104;20.010;2023-05-19T22:50:04;13.70;99.90
51175;DHT22;37240;50.104;20.010;2023-05-19T22:55:05;13.70;99.90
51175;DHT22;37240;50.104;20.010;2023-05-19T23:00:06;13.70;99.90
51175;DHT22;37240;50.104;20.010;2023-05-19T23:05:07;13.70;99.90
51175;DHT22;37240;50.104;20.010;2023-05-19T23:10:08;13.60;99.90
51175;DHT22;37240;50.104;20.010;2023-05-19T23:15:10;13.60;99.90
51175;DHT22;37240;50.104;20.010;2023-05-19T23:20:11;13.50;99.90
51175;DHT22;37240;50.104;20.010;2023-05-19T23:25:11;13.60;99.90
51175;DHT22;37240;50.104;20.010;2023-05-19T23:30:12;13.60;99.90
51175;DHT22;37240;50.104;20.010;2023-05-19T23:35:15;13.60;99.90
51175;DHT22;37240;50.104;20.010;2023-05-19T23:40:15;13.70;99.90
51175;DHT22;37240;50.104;20.010;2023-05-19T23:45:16;13.80;99.90
51175;DHT22;37240;50.104;20.010;2023-05-19T23:50:17;13.80;99.90
51175;DHT22;37240;50.104;20.010;2023-05-19T23:55:17;13.70;99.90
